Indianapolis, IN

9:50 AM EST on December 19, 2014 (GMT -0500)
Speedway | Change Station
CLOSE
Current Station
Personal Weather Station
Location: Speedway, IN
Elevation: 768 ft
Nearby Weather Stations

Elev 768 ft 39.81 °N, 86.26 °W | Updated 1 second ago

Overcast
Overcast
25.9 °F
Feels Like 22 °F
N
3.6
Wind Variable Wind from NNW
Gusts 3.8 mph

Today
High -- | Low -- °F
--% Chance of Precip.
Yesterday
High -- | Low -- °F
Precip. -- in
8:01 AM 5:22 PM
Waning Crescent, 7% visible
Pressure 30.32 in
Visibility 7.0 miles
Clouds Mostly Cloudy 2800 ft
Windchill 22 °F
Dew Point 18 °F
Humidity 73%
Rainfall 0.00 in
Snow Depth Not available.
UV 0 out of 12
Pollen .10 out of 12
Air Quality Not available.
Flu Activity Not available.
METAR KIND 191354Z 00000KT 7SM BKN028 M06/M07 A3029 RMK AO2 SLP267 T10561072

More Conditions Fewer Conditions

Pressure 30.32 in
Visibility 7.0 miles
Clouds Mostly Cloudy 2800 ft
Windchill 22 °F
Dew Point 18 °F
Humidity 73%
Rainfall 0.00 in
Snow Depth Not available.
UV 0 out of 12
Pollen .10 out of 12
Air Quality Not available.
Flu Activity Not available.
METAR KIND 191354Z 00000KT 7SM BKN028 M06/M07 A3029 RMK AO2 SLP267 T10561072

More Conditions Fewer Conditions

10-Day Weather Forecast

Almanac

Astronomy

Dec. 19, 2014 Rise Set
Actual Time
Civil Twilight
Nautical Twilight
Astronomical Twilight
Moon
Length of Visible Light
Length of Day
Tomorrow will be .
, % of the Moon is Illuminated

Today's Extremes

State Highs State Lows

Community

WunderPhotos

Upload Photos

1,778,988 photos uploaded!

WunderBlogs® & News

Nearby

Air Quality

  Air Quality AQ Index Pollutant
Not available.

Snow Depth

Station Depth Elevation

Earthquake Activity

City Distance Mag. Time & Date
Minimum magnitude displayed is 2.5.

Coastal Water Temperatures

Place Temperature

Nearby Weather Stations